createdAt,value
2023-03-08T00:01:56.396Z,6.25
2023-03-08T00:04:24.549Z,6.65
2023-03-08T00:06:53.434Z,6.59
2023-03-08T00:09:21.086Z,6.59
2023-03-08T00:11:49.433Z,6.39
2023-03-08T00:14:16.732Z,6.36
2023-03-08T00:16:43.980Z,6.37
2023-03-08T00:19:13.349Z,6.36
2023-03-08T00:21:40.683Z,6.46
2023-03-08T00:24:08.398Z,6.51
2023-03-08T00:26:37.873Z,6.56
2023-03-08T00:29:06.164Z,6.61
2023-03-08T00:31:33.788Z,6.64
2023-03-08T00:34:02.497Z,6.61
2023-03-08T00:36:31.692Z,6.65
2023-03-08T00:38:59.397Z,6.68
2023-03-08T00:41:26.772Z,6.70
2023-03-08T00:43:54.553Z,6.74
2023-03-08T00:46:22.797Z,6.82
2023-03-08T00:48:49.852Z,6.88
2023-03-08T00:51:19.244Z,6.78
2023-03-08T00:53:50.112Z,6.74
2023-03-08T00:56:17.670Z,6.67
2023-03-08T00:58:46.099Z,6.57
2023-03-08T01:01:15.619Z,6.51
2023-03-08T01:03:43.407Z,6.61
2023-03-08T01:06:14.621Z,6.68
2023-03-08T01:08:42.430Z,6.65
2023-03-08T01:11:18.228Z,6.65
2023-03-08T01:13:45.619Z,6.60
2023-03-08T01:16:18.175Z,6.65
2023-03-08T01:18:45.908Z,6.72
2023-03-08T01:21:13.535Z,6.61
2023-03-08T01:23:42.578Z,6.69
2023-03-08T01:26:14.149Z,6.79
2023-03-08T01:28:43.360Z,6.87
2023-03-08T01:31:13.802Z,6.74
2023-03-08T01:33:41.756Z,6.72
2023-03-08T01:36:11.194Z,6.82
2023-03-08T01:38:40.899Z,6.87
2023-03-08T01:41:10.559Z,6.90
2023-03-08T01:43:40.667Z,7.00
2023-03-08T01:46:18.807Z,7.06
2023-03-08T01:48:52.313Z,7.20
2023-03-08T01:51:26.512Z,7.20
2023-03-08T01:53:55.437Z,7.30
2023-03-08T01:56:25.242Z,7.28
2023-03-08T01:58:53.296Z,7.32
2023-03-08T02:01:23.212Z,7.41
2023-03-08T02:03:51.808Z,7.44
2023-03-08T02:06:20.979Z,7.48
2023-03-08T02:08:48.986Z,7.50
2023-03-08T02:11:19.442Z,7.46
2023-03-08T02:13:47.792Z,7.39
2023-03-08T02:16:17.658Z,7.47
2023-03-08T02:19:13.599Z,7.66
2023-03-08T02:21:40.980Z,7.71
2023-03-08T02:24:20.168Z,7.75
2023-03-08T02:26:48.435Z,7.74
2023-03-08T02:29:15.713Z,7.75
2023-03-08T02:31:43.096Z,7.77
2023-03-08T02:34:10.657Z,7.76
2023-03-08T02:36:38.066Z,7.75
2023-03-08T02:39:05.936Z,7.80
2023-03-08T02:41:34.747Z,7.77
2023-03-08T02:44:02.634Z,7.74
2023-03-08T02:46:30.563Z,7.74
2023-03-08T02:48:58.808Z,7.74
2023-03-08T02:51:26.248Z,7.76
2023-03-08T02:53:53.852Z,7.81
2023-03-08T02:56:21.908Z,7.88
2023-03-08T02:58:51.780Z,7.91
2023-03-08T03:03:47.254Z,7.97
2023-03-08T03:06:16.922Z,8.05
2023-03-08T03:08:44.168Z,8.11
2023-03-08T03:11:12.969Z,8.16
2023-03-08T03:13:40.456Z,8.18
2023-03-08T03:16:13.842Z,8.23
2023-03-08T03:18:41.508Z,8.23
2023-03-08T03:21:12.179Z,8.26
2023-03-08T03:23:40.454Z,8.26
2023-03-08T03:26:10.654Z,8.25
2023-03-08T03:28:37.975Z,8.26
2023-03-08T03:31:08.334Z,8.26
2023-03-08T03:33:38.115Z,8.35
2023-03-08T03:36:06.145Z,8.39
2023-03-08T03:38:34.428Z,8.37
2023-03-08T03:41:01.827Z,8.39
2023-03-08T03:43:29.735Z,8.40
2023-03-08T03:45:57.948Z,8.43
2023-03-08T03:48:26.500Z,8.42
2023-03-08T03:51:00.719Z,8.45
2023-03-08T03:53:29.373Z,8.43
2023-03-08T03:55:56.919Z,8.45
2023-03-08T03:58:24.649Z,8.46
2023-03-08T04:00:51.593Z,8.49
2023-03-08T04:03:19.301Z,8.40
2023-03-08T04:05:47.144Z,8.48
2023-03-08T04:08:16.049Z,8.47
2023-03-08T04:10:43.977Z,8.42
2023-03-08T04:13:12.517Z,8.43
2023-03-08T04:15:40.020Z,8.51
2023-03-08T04:18:08.100Z,8.48
2023-03-08T04:20:35.834Z,8.28
2023-03-08T04:23:03.427Z,8.42
2023-03-08T04:25:33.019Z,8.41
2023-03-08T04:28:03.210Z,8.37
2023-03-08T04:30:30.778Z,8.25
2023-03-08T04:32:57.975Z,8.40
2023-03-08T04:35:25.904Z,8.51
2023-03-08T04:37:53.468Z,8.53
2023-03-08T04:40:20.487Z,8.50
2023-03-08T04:42:50.654Z,8.46
2023-03-08T04:45:18.163Z,8.01
2023-03-08T04:47:46.486Z,8.18
2023-03-08T04:50:14.579Z,8.32
2023-03-08T04:52:42.441Z,8.24
2023-03-08T04:55:09.750Z,8.35
2023-03-08T04:57:37.299Z,8.39
2023-03-08T05:00:07.945Z,8.31
2023-03-08T05:02:36.807Z,8.34
2023-03-08T05:05:06.955Z,7.93
2023-03-08T05:07:34.476Z,8.31
2023-03-08T05:10:02.046Z,8.31
2023-03-08T05:12:29.599Z,8.46
2023-03-08T05:14:57.124Z,8.30
2023-03-08T05:17:27.386Z,8.27
2023-03-08T05:19:55.171Z,8.42
2023-03-08T05:22:22.911Z,8.14
2023-03-08T05:24:51.079Z,8.22
2023-03-08T05:27:18.978Z,8.47
2023-03-08T05:29:46.386Z,8.21
2023-03-08T05:32:14.549Z,8.21
2023-03-08T05:34:44.009Z,8.36
2023-03-08T05:37:11.268Z,8.40
2023-03-08T05:39:39.292Z,8.28
2023-03-08T05:42:07.632Z,8.08
2023-03-08T05:44:35.311Z,8.21
2023-03-08T05:47:02.890Z,8.06
2023-03-08T05:49:31.322Z,8.15
2023-03-08T05:52:01.365Z,8.25
2023-03-08T05:54:29.411Z,8.51
2023-03-08T05:56:57.053Z,8.50
2023-03-08T05:59:24.596Z,8.47
2023-03-08T06:01:52.447Z,8.37
2023-03-08T06:04:20.084Z,7.85
2023-03-08T06:06:47.600Z,7.87
2023-03-08T06:09:17.487Z,8.19
2023-03-08T06:11:45.092Z,8.31
2023-03-08T06:14:13.239Z,8.49
2023-03-08T06:16:40.867Z,8.26
2023-03-08T06:19:08.413Z,8.19
2023-03-08T06:21:35.868Z,8.18
2023-03-08T06:24:03.727Z,7.84
2023-03-08T06:26:33.388Z,8.36
2023-03-08T06:29:00.511Z,8.35
2023-03-08T06:31:28.447Z,8.37
2023-03-08T06:33:55.930Z,8.50
2023-03-08T06:36:23.870Z,8.39
2023-03-08T06:38:52.078Z,8.54
2023-03-08T06:41:20.839Z,8.16
2023-03-08T06:43:49.872Z,8.23
2023-03-08T06:46:18.648Z,8.44
2023-03-08T06:48:47.340Z,8.34
2023-03-08T06:51:14.996Z,8.64
2023-03-08T06:53:43.648Z,8.68
2023-03-08T06:56:13.995Z,8.66
2023-03-08T06:58:42.520Z,8.85
2023-03-08T07:03:40.778Z,8.52
2023-03-08T07:06:09.997Z,8.68
2023-03-08T07:08:39.386Z,8.74
2023-03-08T07:11:07.836Z,8.80
2023-03-08T07:13:35.878Z,8.64
2023-03-08T07:16:07.338Z,8.74
2023-03-08T07:18:36.773Z,8.92
2023-03-08T07:21:05.070Z,8.99
2023-03-08T07:23:32.859Z,9.19
2023-03-08T07:26:00.220Z,9.26
2023-03-08T07:28:27.675Z,9.17
2023-03-08T07:30:55.331Z,9.39
2023-03-08T07:33:22.909Z,9.46
2023-03-08T07:35:52.828Z,9.51
2023-03-08T07:38:20.768Z,9.72
2023-03-08T07:40:54.869Z,9.79
2023-03-08T07:43:22.640Z,9.95
2023-03-08T07:45:50.465Z,9.93
2023-03-08T07:48:17.833Z,9.84
2023-03-08T07:50:45.533Z,9.78
2023-03-08T07:53:14.268Z,9.79
2023-03-08T07:55:41.535Z,9.82
2023-03-08T07:58:09.976Z,9.83
2023-03-08T08:00:37.422Z,9.96
2023-03-08T08:03:05.621Z,10.04
2023-03-08T08:05:36.147Z,10.03
2023-03-08T08:08:03.827Z,9.85
2023-03-08T08:10:32.771Z,10.15
2023-03-08T08:13:00.245Z,10.17
2023-03-08T08:15:27.624Z,10.13
2023-03-08T08:17:55.253Z,10.30
2023-03-08T08:20:22.337Z,10.33
2023-03-08T08:22:49.867Z,10.26
2023-03-08T08:25:17.466Z,10.41
2023-03-08T08:27:48.600Z,10.22
2023-03-08T08:30:16.360Z,10.27
2023-03-08T08:32:44.378Z,10.06
2023-03-08T08:35:11.941Z,10.31
2023-03-08T08:37:39.286Z,9.90
2023-03-08T08:40:07.993Z,10.29
2023-03-08T08:42:35.742Z,10.57
2023-03-08T08:45:07.341Z,10.53
2023-03-08T08:47:34.724Z,10.76
2023-03-08T08:50:02.633Z,10.73
2023-03-08T08:52:30.550Z,10.84
2023-03-08T08:54:58.018Z,10.97
2023-03-08T08:57:25.893Z,11.03
2023-03-08T08:59:53.356Z,11.12
2023-03-08T09:02:22.207Z,11.35
2023-03-08T09:04:50.412Z,11.14
2023-03-08T09:07:17.785Z,11.44
2023-03-08T09:09:45.189Z,11.31
2023-03-08T09:12:13.173Z,11.36
2023-03-08T09:14:40.581Z,11.09
2023-03-08T09:17:08.703Z,10.89
2023-03-08T09:19:38.064Z,10.77
2023-03-08T09:22:06.043Z,11.06
2023-03-08T09:24:34.047Z,11.11
2023-03-08T09:27:01.960Z,10.85
2023-03-08T09:29:29.561Z,11.12
2023-03-08T09:31:58.652Z,11.12
2023-03-08T09:34:26.829Z,11.14
2023-03-08T09:36:56.090Z,11.18
2023-03-08T09:39:23.359Z,10.56
2023-03-08T09:41:53.958Z,11.08
2023-03-08T09:45:00.213Z,10.79
2023-03-08T09:47:36.273Z,11.12
2023-03-08T09:50:18.688Z,10.95
2023-03-08T09:52:52.365Z,11.23
2023-03-08T09:55:22.248Z,11.30
2023-03-08T09:57:54.356Z,10.70
2023-03-08T10:00:23.804Z,10.88
2023-03-08T10:03:04.763Z,11.03
2023-03-08T10:05:39.178Z,10.82
2023-03-08T10:08:17.895Z,10.57
2023-03-08T10:10:54.198Z,10.05
2023-03-08T10:13:34.277Z,10.33
2023-03-08T10:16:16.695Z,10.53
2023-03-08T10:18:52.293Z,10.91
2023-03-08T10:21:25.158Z,11.16
2023-03-08T10:24:00.234Z,11.26
2023-03-08T10:26:28.427Z,10.90
2023-03-08T10:28:56.671Z,11.31
2023-03-08T10:31:26.403Z,11.08
2023-03-08T10:34:02.844Z,11.63
2023-03-08T10:36:30.715Z,10.55
2023-03-08T10:39:07.824Z,11.05
2023-03-08T10:41:43.316Z,10.43
2023-03-08T10:44:16.947Z,10.68
2023-03-08T10:46:51.347Z,11.09
2023-03-08T10:49:20.308Z,10.72
2023-03-08T10:51:56.887Z,11.03
2023-03-08T10:54:26.363Z,10.62
2023-03-08T10:56:58.131Z,10.66
2023-03-08T10:59:29.446Z,10.67
2023-03-08T11:02:00.313Z,10.40
2023-03-08T11:04:29.703Z,10.14
2023-03-08T11:06:58.105Z,10.94
2023-03-08T11:09:29.801Z,10.99
2023-03-08T11:11:58.426Z,11.05
2023-03-08T11:14:28.239Z,11.50
2023-03-08T11:17:17.604Z,10.59
2023-03-08T11:19:56.036Z,10.87
2023-03-08T11:22:38.997Z,10.89
2023-03-08T11:25:30.259Z,10.43
2023-03-08T11:28:22.901Z,10.36
2023-03-08T11:31:00.545Z,10.80
2023-03-08T11:33:55.286Z,11.39
2023-03-08T11:36:29.066Z,11.01
2023-03-08T11:39:04.147Z,11.19
2023-03-08T11:41:44.682Z,11.29
2023-03-08T11:44:37.914Z,11.62
2023-03-08T11:47:35.409Z,10.55
2023-03-08T11:50:09.912Z,11.01
2023-03-08T11:52:44.258Z,9.96
2023-03-08T11:55:37.104Z,10.51
2023-03-08T11:58:13.444Z,10.64
2023-03-08T12:00:43.964Z,10.80
2023-03-08T12:03:16.930Z,11.40
2023-03-08T12:05:49.573Z,11.59
2023-03-08T12:08:23.129Z,11.14
2023-03-08T12:10:57.597Z,11.37
2023-03-08T12:13:33.073Z,10.90
2023-03-08T12:16:08.893Z,10.20
2023-03-08T12:18:41.509Z,10.28
2023-03-08T12:21:19.323Z,10.84
2023-03-08T12:23:57.851Z,11.33
2023-03-08T12:26:31.724Z,10.88
2023-03-08T12:29:04.273Z,11.16
2023-03-08T12:31:37.195Z,9.98
2023-03-08T12:34:13.619Z,10.48
2023-03-08T12:36:44.030Z,10.40
2023-03-08T12:39:27.875Z,10.56
2023-03-08T12:42:01.055Z,10.05
2023-03-08T12:44:31.378Z,10.66
2023-03-08T12:47:04.180Z,10.41
2023-03-08T12:49:36.463Z,9.74
2023-03-08T12:52:07.497Z,9.84
2023-03-08T12:54:36.384Z,9.57
2023-03-08T12:57:16.770Z,9.29
2023-03-08T12:59:46.367Z,9.65
2023-03-08T13:02:28.554Z,9.53
2023-03-08T13:05:19.112Z,9.81
2023-03-08T13:08:19.973Z,9.99
2023-03-08T13:11:04.853Z,10.48
2023-03-08T13:13:43.389Z,9.88
2023-03-08T13:16:32.248Z,9.88
2023-03-08T13:19:18.549Z,10.22
2023-03-08T13:21:54.266Z,9.53
2023-03-08T13:24:32.147Z,10.11
2023-03-08T13:27:20.280Z,9.74
2023-03-08T13:29:49.080Z,9.44
2023-03-08T13:32:20.786Z,9.75
2023-03-08T13:35:00.443Z,9.64
2023-03-08T13:37:29.689Z,9.67
2023-03-08T13:39:59.178Z,9.87
2023-03-08T13:42:28.994Z,9.68
2023-03-08T13:45:08.433Z,10.08
2023-03-08T13:47:40.804Z,9.89
2023-03-08T13:50:16.940Z,9.54
2023-03-08T13:52:44.155Z,9.82
2023-03-08T13:55:19.989Z,10.41
2023-03-08T13:57:51.153Z,10.46
2023-03-08T14:00:26.582Z,10.48
2023-03-08T14:02:56.520Z,10.48
2023-03-08T14:05:25.894Z,9.89
2023-03-08T14:07:58.389Z,10.53
2023-03-08T14:10:36.566Z,10.40
2023-03-08T14:13:06.591Z,10.33
2023-03-08T14:15:38.979Z,9.84
2023-03-08T14:18:16.887Z,9.82
2023-03-08T14:20:45.108Z,10.15
2023-03-08T14:23:24.400Z,10.40
2023-03-08T14:25:57.612Z,10.37
2023-03-08T14:28:42.840Z,10.41
2023-03-08T14:31:26.165Z,10.98
2023-03-08T14:34:01.189Z,10.47
2023-03-08T14:36:31.616Z,10.29
2023-03-08T14:39:00.280Z,10.26
2023-03-08T14:41:33.093Z,9.77
2023-03-08T14:44:02.439Z,9.78
2023-03-08T14:46:31.286Z,10.03
2023-03-08T14:49:02.913Z,10.05
2023-03-08T14:51:36.816Z,10.17
2023-03-08T14:54:06.583Z,10.67
2023-03-08T14:56:34.600Z,10.80
2023-03-08T14:59:04.602Z,10.78
2023-03-08T15:01:34.912Z,10.63
2023-03-08T15:04:16.429Z,10.72
2023-03-08T15:06:44.534Z,10.81
2023-03-08T15:09:15.067Z,10.49
2023-03-08T15:11:43.138Z,10.27
2023-03-08T15:14:12.072Z,10.01
2023-03-08T15:16:40.263Z,10.10
2023-03-08T15:19:09.545Z,10.14
2023-03-08T15:21:38.324Z,10.33
2023-03-08T15:24:07.580Z,10.43
2023-03-08T15:26:35.258Z,10.58
2023-03-08T15:29:02.823Z,10.53
2023-03-08T15:31:30.933Z,10.44
2023-03-08T15:33:58.590Z,10.55
2023-03-08T15:36:28.236Z,10.16
2023-03-08T15:38:55.488Z,10.32
2023-03-08T15:41:22.873Z,10.27
2023-03-08T15:43:50.514Z,10.21
2023-03-08T15:46:18.034Z,10.27
2023-03-08T15:48:45.700Z,10.30
2023-03-08T15:51:17.986Z,10.58
2023-03-08T15:53:47.286Z,10.19
2023-03-08T15:56:15.416Z,10.15
2023-03-08T15:58:43.614Z,10.05
2023-03-08T16:01:11.060Z,10.12
2023-03-08T16:03:39.198Z,10.53
2023-03-08T16:06:09.944Z,10.10
2023-03-08T16:08:37.777Z,10.36
2023-03-08T16:11:09.240Z,10.17
2023-03-08T16:13:37.262Z,10.31
2023-03-08T16:16:06.361Z,10.20
2023-03-08T16:18:36.017Z,10.30
2023-03-08T16:21:08.287Z,10.25
2023-03-08T16:23:36.100Z,10.12
2023-03-08T16:26:15.211Z,10.21
2023-03-08T16:28:47.300Z,10.35
2023-03-08T16:31:15.790Z,10.15
2023-03-08T16:33:43.600Z,9.90
2023-03-08T16:36:12.032Z,9.71
2023-03-08T16:38:41.053Z,9.45
2023-03-08T16:41:15.675Z,9.46
2023-03-08T16:43:48.122Z,9.79
2023-03-08T16:46:17.924Z,9.88
2023-03-08T16:48:46.476Z,9.87
2023-03-08T16:51:15.781Z,9.98
2023-03-08T16:53:43.847Z,9.83
2023-03-08T16:56:19.129Z,9.89
2023-03-08T16:58:47.987Z,9.93
2023-03-08T17:01:18.096Z,9.74
2023-03-08T17:03:45.715Z,9.72
2023-03-08T17:06:15.731Z,9.94
2023-03-08T17:08:43.276Z,10.05
2023-03-08T17:11:16.177Z,10.07
2023-03-08T17:13:44.510Z,10.11
2023-03-08T17:16:13.780Z,9.61
2023-03-08T17:18:41.399Z,9.49
2023-03-08T17:21:08.796Z,9.96
2023-03-08T17:23:37.263Z,9.73
2023-03-08T17:26:06.239Z,9.30
2023-03-08T17:28:34.609Z,9.60
2023-03-08T17:31:03.056Z,9.67
2023-03-08T17:33:32.225Z,9.53
2023-03-08T17:35:59.750Z,9.52
2023-03-08T17:38:27.105Z,9.46
2023-03-08T17:40:54.634Z,9.19
2023-03-08T17:43:22.409Z,9.17
2023-03-08T17:45:57.956Z,9.60
2023-03-08T17:48:26.161Z,9.72
2023-03-08T17:50:55.769Z,9.42
2023-03-08T17:53:22.978Z,9.57
2023-03-08T17:55:50.721Z,9.58
2023-03-08T17:58:18.053Z,9.44
2023-03-08T18:00:45.563Z,9.26
2023-03-08T18:03:12.594Z,9.14
2023-03-08T18:05:48.146Z,8.91
2023-03-08T18:08:18.837Z,9.22
2023-03-08T18:10:46.882Z,9.49
2023-03-08T18:13:14.434Z,9.26
2023-03-08T18:15:42.180Z,9.07
2023-03-08T18:18:09.982Z,9.04
2023-03-08T18:20:37.426Z,8.90
2023-03-08T18:23:04.774Z,9.13
2023-03-08T18:25:33.881Z,8.87
2023-03-08T18:28:01.517Z,8.64
2023-03-08T18:30:29.091Z,8.38
2023-03-08T18:32:56.457Z,8.76
2023-03-08T18:35:23.996Z,8.97
2023-03-08T18:37:51.859Z,8.72
2023-03-08T18:40:18.863Z,9.15
2023-03-08T18:42:48.923Z,9.26
2023-03-08T18:45:16.913Z,9.20
2023-03-08T18:47:44.575Z,8.72
2023-03-08T18:50:12.841Z,8.69
2023-03-08T18:52:41.397Z,8.71
2023-03-08T18:55:09.628Z,9.10
2023-03-08T18:57:37.429Z,8.92
2023-03-08T19:00:07.982Z,9.34
2023-03-08T19:02:35.180Z,9.07
2023-03-08T19:05:02.956Z,8.86
2023-03-08T19:07:31.123Z,8.88
2023-03-08T19:09:59.386Z,8.50
2023-03-08T19:12:28.419Z,9.16
2023-03-08T19:14:56.058Z,9.09
2023-03-08T19:17:25.098Z,9.33
2023-03-08T19:19:52.432Z,9.55
2023-03-08T19:22:19.925Z,9.69
2023-03-08T19:24:48.795Z,9.64
2023-03-08T19:27:16.312Z,9.49
2023-03-08T19:29:44.322Z,9.26
2023-03-08T19:32:12.657Z,9.41
2023-03-08T19:34:42.342Z,9.07
2023-03-08T19:37:11.504Z,8.76
2023-03-08T19:39:39.893Z,8.61
2023-03-08T19:42:11.232Z,8.85
2023-03-08T19:44:39.149Z,9.01
2023-03-08T19:47:06.832Z,8.57
2023-03-08T19:49:37.900Z,9.15
2023-03-08T19:52:07.948Z,8.92
2023-03-08T19:54:38.654Z,8.92
2023-03-08T19:57:06.459Z,8.78
2023-03-08T19:59:33.863Z,9.20
2023-03-08T20:02:01.657Z,9.16
2023-03-08T20:04:29.467Z,8.51
2023-03-08T20:07:00.613Z,8.71
2023-03-08T20:09:30.246Z,9.21
2023-03-08T20:11:59.305Z,9.25
2023-03-08T20:14:28.232Z,9.34
2023-03-08T20:16:56.036Z,8.82
2023-03-08T20:19:24.000Z,8.49
2023-03-08T20:21:52.375Z,8.68
2023-03-08T20:24:20.668Z,7.90
2023-03-08T20:26:50.611Z,8.27
2023-03-08T20:29:20.599Z,8.42
2023-03-08T20:31:48.743Z,8.74
2023-03-08T20:34:16.830Z,8.30
2023-03-08T20:36:45.314Z,8.30
2023-03-08T20:39:13.496Z,8.56
2023-03-08T20:41:41.308Z,8.72
2023-03-08T20:44:14.542Z,8.26
2023-03-08T20:46:42.133Z,8.16
2023-03-08T20:49:10.456Z,8.18
2023-03-08T20:51:39.515Z,8.69
2023-03-08T20:54:07.220Z,8.77
2023-03-08T20:56:34.674Z,8.96
2023-03-08T20:59:02.332Z,9.07
2023-03-08T21:01:33.208Z,8.90
2023-03-08T21:04:01.080Z,8.68
2023-03-08T21:06:31.515Z,8.95
2023-03-08T21:08:59.944Z,9.05
2023-03-08T21:11:28.007Z,8.21
2023-03-08T21:13:55.690Z,8.48
2023-03-08T21:16:24.896Z,8.77
2023-03-08T21:18:56.116Z,8.76
2023-03-08T21:21:25.932Z,8.93
2023-03-08T21:23:55.665Z,9.06
2023-03-08T21:26:24.129Z,9.20
2023-03-08T21:28:51.472Z,9.19
2023-03-08T21:31:20.027Z,8.56
2023-03-08T21:33:47.913Z,8.67
2023-03-08T21:36:17.228Z,8.79
2023-03-08T21:38:44.896Z,8.88
2023-03-08T21:41:19.243Z,8.75
2023-03-08T21:43:46.978Z,9.22
2023-03-08T21:46:14.798Z,8.57
2023-03-08T21:48:42.651Z,8.68
2023-03-08T21:51:10.747Z,9.07
2023-03-08T21:53:40.598Z,9.11
2023-03-08T21:56:09.081Z,8.18
2023-03-08T21:58:37.752Z,8.17
2023-03-08T22:01:07.001Z,8.39
2023-03-08T22:03:35.135Z,8.52
2023-03-08T22:06:03.605Z,8.76
2023-03-08T22:08:30.850Z,8.63
2023-03-08T22:10:59.915Z,8.51
2023-03-08T22:13:28.273Z,8.61
2023-03-08T22:15:56.160Z,9.18
2023-03-08T22:18:23.431Z,9.15
2023-03-08T22:20:51.074Z,8.91
2023-03-08T22:23:19.696Z,8.67
2023-03-08T22:25:47.455Z,8.95
2023-03-08T22:28:16.857Z,9.05
2023-03-08T22:30:44.437Z,8.51
2023-03-08T22:33:11.678Z,9.19
2023-03-08T22:35:39.593Z,9.18
2023-03-08T22:38:07.061Z,9.01
2023-03-08T22:40:34.420Z,9.01
2023-03-08T22:43:02.135Z,9.00
2023-03-08T22:45:31.162Z,9.11
2023-03-08T22:47:58.536Z,9.41
2023-03-08T22:50:26.042Z,9.49
2023-03-08T22:52:54.676Z,9.47
2023-03-08T22:55:22.826Z,9.28
2023-03-08T22:57:51.945Z,9.02
2023-03-08T23:00:20.010Z,9.08
2023-03-08T23:02:49.696Z,8.59
2023-03-08T23:05:19.542Z,9.03
2023-03-08T23:07:47.295Z,9.33
2023-03-08T23:10:15.425Z,8.95
2023-03-08T23:12:43.416Z,8.91
2023-03-08T23:15:12.091Z,9.32
2023-03-08T23:17:39.666Z,9.07
2023-03-08T23:20:11.579Z,8.98
2023-03-08T23:22:41.902Z,9.04
2023-03-08T23:25:11.187Z,8.91
2023-03-08T23:27:38.230Z,8.76
2023-03-08T23:30:07.208Z,8.63
2023-03-08T23:32:34.502Z,9.31
2023-03-08T23:35:01.970Z,9.24
2023-03-08T23:37:30.878Z,8.95
2023-03-08T23:39:58.682Z,9.23
2023-03-08T23:42:26.146Z,9.08
2023-03-08T23:44:53.534Z,8.89
2023-03-08T23:47:22.148Z,9.07
2023-03-08T23:49:49.486Z,9.35
2023-03-08T23:52:16.963Z,9.27
2023-03-08T23:54:46.507Z,9.22
2023-03-08T23:57:14.132Z,9.05
2023-03-08T23:59:41.371Z,9.30
